sensor_id;sensor_type;location;lat;lon;timestamp;P1;durP1;ratioP1;P2;durP2;ratioP2
78346;SDS011;67803;41.330;69.282;2023-11-21T00:00:56;5.63;;;2.40;;
78346;SDS011;67803;41.330;69.282;2023-11-21T00:03:28;4.72;;;2.10;;
78346;SDS011;67803;41.330;69.282;2023-11-21T00:05:59;5.45;;;1.85;;
78346;SDS011;67803;41.330;69.282;2023-11-21T00:08:30;7.90;;;2.00;;
78346;SDS011;67803;41.330;69.282;2023-11-21T00:11:01;5.88;;;2.08;;
78346;SDS011;67803;41.330;69.282;2023-11-21T00:13:32;5.18;;;1.88;;
78346;SDS011;67803;41.330;69.282;2023-11-21T00:16:02;5.07;;;1.92;;
78346;SDS011;67803;41.330;69.282;2023-11-21T00:18:34;5.03;;;2.13;;
78346;SDS011;67803;41.330;69.282;2023-11-21T00:21:06;5.47;;;2.00;;
78346;SDS011;67803;41.330;69.282;2023-11-21T00:23:36;5.32;;;1.88;;
78346;SDS011;67803;41.330;69.282;2023-11-21T00:26:07;5.53;;;2.50;;
78346;SDS011;67803;41.330;69.282;2023-11-21T00:28:37;4.95;;;1.92;;
78346;SDS011;67803;41.330;69.282;2023-11-21T00:31:08;3.25;;;1.90;;
78346;SDS011;67803;41.330;69.282;2023-11-21T00:33:38;5.65;;;2.00;;
78346;SDS011;67803;41.330;69.282;2023-11-21T00:36:09;6.65;;;1.77;;
78346;SDS011;67803;41.330;69.282;2023-11-21T00:38:40;3.55;;;2.00;;
78346;SDS011;67803;41.330;69.282;2023-11-21T00:41:10;2.83;;;2.22;;
78346;SDS011;67803;41.330;69.282;2023-11-21T00:43:41;7.00;;;1.85;;
78346;SDS011;67803;41.330;69.282;2023-11-21T00:46:11;9.00;;;2.38;;
78346;SDS011;67803;41.330;69.282;2023-11-21T00:48:42;6.15;;;2.08;;
78346;SDS011;67803;41.330;69.282;2023-11-21T00:51:12;6.97;;;2.13;;
78346;SDS011;67803;41.330;69.282;2023-11-21T00:53:43;5.18;;;2.00;;
78346;SDS011;67803;41.330;69.282;2023-11-21T00:56:13;9.57;;;2.47;;
78346;SDS011;67803;41.330;69.282;2023-11-21T00:58:44;8.40;;;2.63;;
78346;SDS011;67803;41.330;69.282;2023-11-21T01:01:20;9.68;;;2.30;;
78346;SDS011;67803;41.330;69.282;2023-11-21T01:03:52;10.65;;;2.22;;
78346;SDS011;67803;41.330;69.282;2023-11-21T01:06:22;11.07;;;2.60;;
78346;SDS011;67803;41.330;69.282;2023-11-21T01:08:53;12.20;;;2.30;;
78346;SDS011;67803;41.330;69.282;2023-11-21T01:11:23;5.47;;;2.38;;
78346;SDS011;67803;41.330;69.282;2023-11-21T01:13:54;8.90;;;2.45;;
78346;SDS011;67803;41.330;69.282;2023-11-21T01:16:24;7.85;;;2.22;;
78346;SDS011;67803;41.330;69.282;2023-11-21T01:18:55;7.85;;;2.40;;
78346;SDS011;67803;41.330;69.282;2023-11-21T01:21:25;7.50;;;2.22;;
78346;SDS011;67803;41.330;69.282;2023-11-21T01:23:56;9.73;;;2.10;;
78346;SDS011;67803;41.330;69.282;2023-11-21T01:26:26;9.20;;;2.28;;
78346;SDS011;67803;41.330;69.282;2023-11-21T01:28:57;8.25;;;2.55;;
78346;SDS011;67803;41.330;69.282;2023-11-21T01:31:27;14.82;;;2.83;;
78346;SDS011;67803;41.330;69.282;2023-11-21T01:33:59;14.82;;;2.60;;
78346;SDS011;67803;41.330;69.282;2023-11-21T01:36:30;7.80;;;2.22;;
78346;SDS011;67803;41.330;69.282;2023-11-21T01:39:02;8.02;;;2.78;;
78346;SDS011;67803;41.330;69.282;2023-11-21T01:41:37;8.57;;;2.17;;
78346;SDS011;67803;41.330;69.282;2023-11-21T01:44:08;8.27;;;2.15;;
78346;SDS011;67803;41.330;69.282;2023-11-21T01:46:39;7.10;;;2.20;;
78346;SDS011;67803;41.330;69.282;2023-11-21T01:49:11;4.90;;;2.10;;
78346;SDS011;67803;41.330;69.282;2023-11-21T01:51:48;5.25;;;2.25;;
78346;SDS011;67803;41.330;69.282;2023-11-21T01:54:22;7.90;;;2.17;;
78346;SDS011;67803;41.330;69.282;2023-11-21T01:56:52;7.10;;;2.10;;
78346;SDS011;67803;41.330;69.282;2023-11-21T01:59:23;6.32;;;2.42;;
78346;SDS011;67803;41.330;69.282;2023-11-21T02:01:54;9.18;;;2.13;;
78346;SDS011;67803;41.330;69.282;2023-11-21T02:04:26;8.27;;;2.38;;
78346;SDS011;67803;41.330;69.282;2023-11-21T02:06:57;6.47;;;2.00;;
78346;SDS011;67803;41.330;69.282;2023-11-21T02:09:28;7.25;;;1.90;;
78346;SDS011;67803;41.330;69.282;2023-11-21T02:12:00;4.00;;;1.95;;
78346;SDS011;67803;41.330;69.282;2023-11-21T02:14:31;5.97;;;2.08;;
78346;SDS011;67803;41.330;69.282;2023-11-21T02:17:02;5.30;;;1.70;;
78346;SDS011;67803;41.330;69.282;2023-11-21T02:19:33;5.88;;;2.00;;
78346;SDS011;67803;41.330;69.282;2023-11-21T02:22:04;8.40;;;2.08;;
78346;SDS011;67803;41.330;69.282;2023-11-21T02:24:36;7.53;;;2.65;;
78346;SDS011;67803;41.330;69.282;2023-11-21T02:27:07;4.25;;;2.03;;
78346;SDS011;67803;41.330;69.282;2023-11-21T02:29:37;9.93;;;2.20;;
78346;SDS011;67803;41.330;69.282;2023-11-21T02:32:08;5.68;;;2.35;;
78346;SDS011;67803;41.330;69.282;2023-11-21T02:34:40;4.90;;;2.03;;
78346;SDS011;67803;41.330;69.282;2023-11-21T02:37:11;8.43;;;2.25;;
78346;SDS011;67803;41.330;69.282;2023-11-21T02:39:41;8.23;;;2.30;;
78346;SDS011;67803;41.330;69.282;2023-11-21T02:42:12;4.72;;;1.90;;
78346;SDS011;67803;41.330;69.282;2023-11-21T02:44:43;10.60;;;2.88;;
78346;SDS011;67803;41.330;69.282;2023-11-21T02:47:13;8.15;;;2.50;;
78346;SDS011;67803;41.330;69.282;2023-11-21T02:49:43;7.10;;;2.25;;
78346;SDS011;67803;41.330;69.282;2023-11-21T02:52:14;11.70;;;3.15;;
78346;SDS011;67803;41.330;69.282;2023-11-21T02:54:45;7.68;;;2.30;;
78346;SDS011;67803;41.330;69.282;2023-11-21T02:57:15;10.82;;;2.80;;
78346;SDS011;67803;41.330;69.282;2023-11-21T02:59:46;19.35;;;3.03;;
78346;SDS011;67803;41.330;69.282;2023-11-21T03:02:16;9.15;;;3.25;;
78346;SDS011;67803;41.330;69.282;2023-11-21T03:04:47;10.18;;;3.75;;
78346;SDS011;67803;41.330;69.282;2023-11-21T03:07:19;11.40;;;3.10;;
78346;SDS011;67803;41.330;69.282;2023-11-21T03:09:49;11.85;;;4.10;;
78346;SDS011;67803;41.330;69.282;2023-11-21T03:12:20;8.38;;;2.38;;
78346;SDS011;67803;41.330;69.282;2023-11-21T03:14:52;8.48;;;2.28;;
78346;SDS011;67803;41.330;69.282;2023-11-21T03:17:24;6.28;;;2.72;;
78346;SDS011;67803;41.330;69.282;2023-11-21T03:19:54;10.02;;;2.60;;
78346;SDS011;67803;41.330;69.282;2023-11-21T03:22:25;7.72;;;2.72;;
78346;SDS011;67803;41.330;69.282;2023-11-21T03:24:56;7.55;;;2.50;;
78346;SDS011;67803;41.330;69.282;2023-11-21T03:27:27;5.07;;;2.08;;
78346;SDS011;67803;41.330;69.282;2023-11-21T03:29:57;8.13;;;2.30;;
78346;SDS011;67803;41.330;69.282;2023-11-21T03:32:28;7.47;;;2.55;;
78346;SDS011;67803;41.330;69.282;2023-11-21T03:34:58;11.32;;;2.65;;
78346;SDS011;67803;41.330;69.282;2023-11-21T03:37:29;7.32;;;2.30;;
78346;SDS011;67803;41.330;69.282;2023-11-21T03:39:59;11.63;;;2.10;;
78346;SDS011;67803;41.330;69.282;2023-11-21T03:42:30;8.38;;;2.28;;
78346;SDS011;67803;41.330;69.282;2023-11-21T03:45:00;7.10;;;2.35;;
78346;SDS011;67803;41.330;69.282;2023-11-21T03:47:31;12.38;;;2.20;;
78346;SDS011;67803;41.330;69.282;2023-11-21T03:50:02;6.43;;;2.00;;
78346;SDS011;67803;41.330;69.282;2023-11-21T03:52:33;17.63;;;2.50;;
78346;SDS011;67803;41.330;69.282;2023-11-21T03:55:04;8.55;;;2.08;;
78346;SDS011;67803;41.330;69.282;2023-11-21T03:57:34;7.72;;;2.25;;
78346;SDS011;67803;41.330;69.282;2023-11-21T04:00:06;7.15;;;1.80;;
78346;SDS011;67803;41.330;69.282;2023-11-21T04:02:38;7.32;;;2.15;;
78346;SDS011;67803;41.330;69.282;2023-11-21T04:05:09;7.95;;;2.20;;
78346;SDS011;67803;41.330;69.282;2023-11-21T04:07:40;7.75;;;2.65;;
78346;SDS011;67803;41.330;69.282;2023-11-21T04:10:10;10.73;;;2.63;;
78346;SDS011;67803;41.330;69.282;2023-11-21T04:12:43;10.40;;;2.40;;
78346;SDS011;67803;41.330;69.282;2023-11-21T04:15:13;7.13;;;2.22;;
78346;SDS011;67803;41.330;69.282;2023-11-21T04:17:44;8.05;;;2.53;;
78346;SDS011;67803;41.330;69.282;2023-11-21T04:20:15;8.40;;;2.58;;
78346;SDS011;67803;41.330;69.282;2023-11-21T04:22:46;8.30;;;2.10;;
78346;SDS011;67803;41.330;69.282;2023-11-21T04:25:16;7.32;;;2.50;;
78346;SDS011;67803;41.330;69.282;2023-11-21T04:27:47;10.38;;;3.05;;
78346;SDS011;67803;41.330;69.282;2023-11-21T04:30:18;8.95;;;2.63;;
78346;SDS011;67803;41.330;69.282;2023-11-21T04:32:48;9.73;;;2.72;;
78346;SDS011;67803;41.330;69.282;2023-11-21T04:35:19;6.68;;;2.33;;
78346;SDS011;67803;41.330;69.282;2023-11-21T04:37:49;8.43;;;2.88;;
78346;SDS011;67803;41.330;69.282;2023-11-21T04:40:21;7.90;;;2.50;;
78346;SDS011;67803;41.330;69.282;2023-11-21T04:42:51;7.07;;;2.80;;
78346;SDS011;67803;41.330;69.282;2023-11-21T04:45:22;10.60;;;2.58;;
78346;SDS011;67803;41.330;69.282;2023-11-21T04:47:52;12.63;;;2.08;;
78346;SDS011;67803;41.330;69.282;2023-11-21T04:50:23;9.20;;;2.28;;
78346;SDS011;67803;41.330;69.282;2023-11-21T04:52:56;8.43;;;2.42;;
78346;SDS011;67803;41.330;69.282;2023-11-21T04:55:26;9.65;;;2.28;;
78346;SDS011;67803;41.330;69.282;2023-11-21T04:57:58;8.07;;;2.53;;
78346;SDS011;67803;41.330;69.282;2023-11-21T05:00:28;16.33;;;2.80;;
78346;SDS011;67803;41.330;69.282;2023-11-21T05:02:59;12.43;;;2.78;;
78346;SDS011;67803;41.330;69.282;2023-11-21T05:05:31;8.07;;;2.70;;
78346;SDS011;67803;41.330;69.282;2023-11-21T05:08:02;8.90;;;2.72;;
78346;SDS011;67803;41.330;69.282;2023-11-21T05:10:33;12.90;;;3.13;;
78346;SDS011;67803;41.330;69.282;2023-11-21T05:13:04;8.88;;;2.85;;
78346;SDS011;67803;41.330;69.282;2023-11-21T05:15:37;11.88;;;3.33;;
78346;SDS011;67803;41.330;69.282;2023-11-21T05:18:09;9.98;;;3.10;;
78346;SDS011;67803;41.330;69.282;2023-11-21T05:20:40;10.13;;;2.88;;
78346;SDS011;67803;41.330;69.282;2023-11-21T05:23:11;8.88;;;3.03;;
78346;SDS011;67803;41.330;69.282;2023-11-21T05:25:42;13.35;;;3.25;;
78346;SDS011;67803;41.330;69.282;2023-11-21T05:28:12;10.02;;;3.53;;
78346;SDS011;67803;41.330;69.282;2023-11-21T05:30:43;8.45;;;3.20;;
78346;SDS011;67803;41.330;69.282;2023-11-21T05:33:14;7.82;;;2.60;;
78346;SDS011;67803;41.330;69.282;2023-11-21T05:35:44;16.52;;;2.97;;
78346;SDS011;67803;41.330;69.282;2023-11-21T05:38:15;27.30;;;3.60;;
78346;SDS011;67803;41.330;69.282;2023-11-21T05:40:45;20.00;;;3.63;;
78346;SDS011;67803;41.330;69.282;2023-11-21T05:43:16;11.65;;;3.53;;
78346;SDS011;67803;41.330;69.282;2023-11-21T05:45:46;8.63;;;2.25;;
78346;SDS011;67803;41.330;69.282;2023-11-21T05:48:17;17.40;;;3.38;;
78346;SDS011;67803;41.330;69.282;2023-11-21T05:50:48;12.30;;;2.83;;
78346;SDS011;67803;41.330;69.282;2023-11-21T05:53:19;8.20;;;2.33;;
78346;SDS011;67803;41.330;69.282;2023-11-21T05:55:50;7.85;;;2.63;;
78346;SDS011;67803;41.330;69.282;2023-11-21T05:58:21;12.23;;;2.55;;
78346;SDS011;67803;41.330;69.282;2023-11-21T06:00:51;9.52;;;2.45;;
78346;SDS011;67803;41.330;69.282;2023-11-21T06:03:22;8.70;;;2.70;;
78346;SDS011;67803;41.330;69.282;2023-11-21T06:05:53;10.30;;;2.25;;
78346;SDS011;67803;41.330;69.282;2023-11-21T06:08:24;7.82;;;2.75;;
78346;SDS011;67803;41.330;69.282;2023-11-21T06:10:54;5.65;;;2.53;;
78346;SDS011;67803;41.330;69.282;2023-11-21T06:13:26;10.50;;;2.97;;
78346;SDS011;67803;41.330;69.282;2023-11-21T06:15:56;8.40;;;2.50;;
78346;SDS011;67803;41.330;69.282;2023-11-21T06:18:27;6.07;;;2.17;;
78346;SDS011;67803;41.330;69.282;2023-11-21T06:20:57;5.82;;;2.17;;
78346;SDS011;67803;41.330;69.282;2023-11-21T06:23:30;7.10;;;2.00;;
78346;SDS011;67803;41.330;69.282;2023-11-21T06:26:01;7.38;;;2.42;;
78346;SDS011;67803;41.330;69.282;2023-11-21T06:28:32;10.25;;;2.58;;
78346;SDS011;67803;41.330;69.282;2023-11-21T06:31:02;5.30;;;1.85;;
78346;SDS011;67803;41.330;69.282;2023-11-21T06:33:35;5.55;;;2.53;;
78346;SDS011;67803;41.330;69.282;2023-11-21T06:36:05;9.20;;;2.47;;
78346;SDS011;67803;41.330;69.282;2023-11-21T06:38:36;4.90;;;2.03;;
78346;SDS011;67803;41.330;69.282;2023-11-21T06:41:07;7.05;;;2.50;;
78346;SDS011;67803;41.330;69.282;2023-11-21T06:43:38;9.82;;;2.92;;
78346;SDS011;67803;41.330;69.282;2023-11-21T06:46:09;7.15;;;2.40;;
78346;SDS011;67803;41.330;69.282;2023-11-21T06:48:44;7.05;;;2.40;;
78346;SDS011;67803;41.330;69.282;2023-11-21T06:51:15;9.15;;;2.53;;
78346;SDS011;67803;41.330;69.282;2023-11-21T06:53:45;6.82;;;2.50;;
78346;SDS011;67803;41.330;69.282;2023-11-21T06:56:19;7.47;;;2.33;;
78346;SDS011;67803;41.330;69.282;2023-11-21T07:01:24;11.25;;;2.53;;
78346;SDS011;67803;41.330;69.282;2023-11-21T07:03:54;6.28;;;2.03;;
78346;SDS011;67803;41.330;69.282;2023-11-21T07:06:25;5.22;;;2.47;;
78346;SDS011;67803;41.330;69.282;2023-11-21T07:08:56;21.90;;;2.95;;
78346;SDS011;67803;41.330;69.282;2023-11-21T07:11:27;5.60;;;2.50;;
78346;SDS011;67803;41.330;69.282;2023-11-21T07:13:57;11.27;;;2.55;;
78346;SDS011;67803;41.330;69.282;2023-11-21T07:16:28;7.57;;;3.10;;
78346;SDS011;67803;41.330;69.282;2023-11-21T07:19:00;8.27;;;3.45;;
78346;SDS011;67803;41.330;69.282;2023-11-21T07:21:31;6.07;;;3.08;;
78346;SDS011;67803;41.330;69.282;2023-11-21T07:24:02;3.78;;;2.30;;
78346;SDS011;67803;41.330;69.282;2023-11-21T07:26:33;8.05;;;2.63;;
78346;SDS011;67803;41.330;69.282;2023-11-21T07:29:04;6.00;;;2.92;;
78346;SDS011;67803;41.330;69.282;2023-11-21T07:31:34;5.28;;;2.60;;
78346;SDS011;67803;41.330;69.282;2023-11-21T07:34:05;9.05;;;3.05;;
78346;SDS011;67803;41.330;69.282;2023-11-21T07:36:35;5.30;;;2.58;;
78346;SDS011;67803;41.330;69.282;2023-11-21T07:39:06;5.45;;;2.03;;
78346;SDS011;67803;41.330;69.282;2023-11-21T07:41:37;7.25;;;2.10;;
78346;SDS011;67803;41.330;69.282;2023-11-21T07:44:09;8.82;;;2.45;;
78346;SDS011;67803;41.330;69.282;2023-11-21T07:46:39;9.02;;;2.58;;
78346;SDS011;67803;41.330;69.282;2023-11-21T07:49:10;11.75;;;3.72;;
78346;SDS011;67803;41.330;69.282;2023-11-21T07:51:41;9.60;;;3.72;;
78346;SDS011;67803;41.330;69.282;2023-11-21T07:54:12;6.32;;;2.38;;
78346;SDS011;67803;41.330;69.282;2023-11-21T07:56:42;6.30;;;2.63;;
78346;SDS011;67803;41.330;69.282;2023-11-21T07:59:13;7.25;;;3.03;;
78346;SDS011;67803;41.330;69.282;2023-11-21T08:01:44;6.30;;;2.10;;
78346;SDS011;67803;41.330;69.282;2023-11-21T08:04:15;7.55;;;2.50;;
78346;SDS011;67803;41.330;69.282;2023-11-21T08:06:46;6.55;;;2.10;;
78346;SDS011;67803;41.330;69.282;2023-11-21T08:09:16;7.60;;;2.95;;
78346;SDS011;67803;41.330;69.282;2023-11-21T08:11:47;4.63;;;2.70;;
78346;SDS011;67803;41.330;69.282;2023-11-21T08:14:18;10.07;;;2.60;;
78346;SDS011;67803;41.330;69.282;2023-11-21T08:16:49;14.05;;;3.72;;
78346;SDS011;67803;41.330;69.282;2023-11-21T08:19:19;22.35;;;3.50;;
78346;SDS011;67803;41.330;69.282;2023-11-21T08:21:50;8.02;;;3.17;;
78346;SDS011;67803;41.330;69.282;2023-11-21T08:24:21;12.23;;;3.10;;
78346;SDS011;67803;41.330;69.282;2023-11-21T08:26:52;10.25;;;2.67;;
78346;SDS011;67803;41.330;69.282;2023-11-21T08:29:24;7.07;;;3.80;;
78346;SDS011;67803;41.330;69.282;2023-11-21T08:31:54;7.88;;;3.47;;
78346;SDS011;67803;41.330;69.282;2023-11-21T08:34:26;10.70;;;2.97;;
78346;SDS011;67803;41.330;69.282;2023-11-21T08:36:56;10.13;;;2.63;;
78346;SDS011;67803;41.330;69.282;2023-11-21T08:39:27;10.15;;;2.95;;
78346;SDS011;67803;41.330;69.282;2023-11-21T08:41:58;6.82;;;3.13;;
78346;SDS011;67803;41.330;69.282;2023-11-21T08:44:28;8.35;;;3.05;;
78346;SDS011;67803;41.330;69.282;2023-11-21T08:47:00;6.63;;;2.63;;
78346;SDS011;67803;41.330;69.282;2023-11-21T08:49:31;10.82;;;2.80;;
78346;SDS011;67803;41.330;69.282;2023-11-21T08:52:01;7.38;;;2.45;;
78346;SDS011;67803;41.330;69.282;2023-11-21T08:54:32;5.22;;;2.65;;
78346;SDS011;67803;41.330;69.282;2023-11-21T08:57:04;9.13;;;3.15;;
78346;SDS011;67803;41.330;69.282;2023-11-21T08:59:35;8.05;;;3.20;;
78346;SDS011;67803;41.330;69.282;2023-11-21T09:02:05;11.52;;;2.70;;
78346;SDS011;67803;41.330;69.282;2023-11-21T09:04:36;7.22;;;3.15;;
78346;SDS011;67803;41.330;69.282;2023-11-21T09:07:07;7.43;;;2.25;;
78346;SDS011;67803;41.330;69.282;2023-11-21T09:09:37;7.97;;;2.25;;
78346;SDS011;67803;41.330;69.282;2023-11-21T09:12:09;8.10;;;2.50;;
78346;SDS011;67803;41.330;69.282;2023-11-21T09:14:42;12.05;;;3.15;;
78346;SDS011;67803;41.330;69.282;2023-11-21T09:17:14;20.63;;;3.10;;
78346;SDS011;67803;41.330;69.282;2023-11-21T09:19:44;13.02;;;3.13;;
78346;SDS011;67803;41.330;69.282;2023-11-21T09:22:21;12.30;;;3.17;;
78346;SDS011;67803;41.330;69.282;2023-11-21T09:24:52;17.15;;;3.60;;
78346;SDS011;67803;41.330;69.282;2023-11-21T09:27:22;35.20;;;4.22;;
78346;SDS011;67803;41.330;69.282;2023-11-21T09:29:53;14.80;;;3.00;;
78346;SDS011;67803;41.330;69.282;2023-11-21T09:32:23;10.20;;;2.55;;
78346;SDS011;67803;41.330;69.282;2023-11-21T09:34:54;6.38;;;2.33;;
78346;SDS011;67803;41.330;69.282;2023-11-21T09:37:28;9.18;;;2.38;;
78346;SDS011;67803;41.330;69.282;2023-11-21T09:39:58;6.97;;;2.00;;
78346;SDS011;67803;41.330;69.282;2023-11-21T09:42:30;11.00;;;2.50;;
78346;SDS011;67803;41.330;69.282;2023-11-21T09:47:53;4.72;;;2.05;;
78346;SDS011;67803;41.330;69.282;2023-11-21T09:50:25;9.70;;;2.50;;
78346;SDS011;67803;41.330;69.282;2023-11-21T09:53:05;13.40;;;2.30;;
78346;SDS011;67803;41.330;69.282;2023-11-21T09:55:43;7.45;;;2.60;;
78346;SDS011;67803;41.330;69.282;2023-11-21T09:58:14;7.05;;;2.22;;
78346;SDS011;67803;41.330;69.282;2023-11-21T10:00:46;11.85;;;2.80;;
78346;SDS011;67803;41.330;69.282;2023-11-21T10:03:16;9.15;;;3.00;;
78346;SDS011;67803;41.330;69.282;2023-11-21T10:05:48;7.43;;;2.83;;
78346;SDS011;67803;41.330;69.282;2023-11-21T10:08:20;12.57;;;4.15;;
78346;SDS011;67803;41.330;69.282;2023-11-21T10:10:53;14.93;;;3.63;;
78346;SDS011;67803;41.330;69.282;2023-11-21T10:13:24;12.27;;;3.38;;
78346;SDS011;67803;41.330;69.282;2023-11-21T10:15:54;19.38;;;4.10;;
78346;SDS011;67803;41.330;69.282;2023-11-21T10:18:25;8.75;;;2.90;;
78346;SDS011;67803;41.330;69.282;2023-11-21T10:20:56;8.52;;;3.72;;
78346;SDS011;67803;41.330;69.282;2023-11-21T10:23:27;13.02;;;3.58;;
78346;SDS011;67803;41.330;69.282;2023-11-21T10:25:58;16.13;;;4.13;;
78346;SDS011;67803;41.330;69.282;2023-11-21T10:28:29;11.88;;;4.20;;
78346;SDS011;67803;41.330;69.282;2023-11-21T10:31:00;13.70;;;4.38;;
78346;SDS011;67803;41.330;69.282;2023-11-21T10:33:32;12.45;;;3.75;;
78346;SDS011;67803;41.330;69.282;2023-11-21T10:36:03;11.20;;;3.95;;
78346;SDS011;67803;41.330;69.282;2023-11-21T10:38:37;10.32;;;4.00;;
78346;SDS011;67803;41.330;69.282;2023-11-21T10:41:12;11.10;;;4.35;;
78346;SDS011;67803;41.330;69.282;2023-11-21T10:43:45;10.90;;;3.80;;
78346;SDS011;67803;41.330;69.282;2023-11-21T10:46:16;7.85;;;3.42;;
78346;SDS011;67803;41.330;69.282;2023-11-21T10:48:51;9.25;;;4.00;;
78346;SDS011;67803;41.330;69.282;2023-11-21T10:51:22;7.28;;;3.40;;
78346;SDS011;67803;41.330;69.282;2023-11-21T10:53:54;9.05;;;3.45;;
78346;SDS011;67803;41.330;69.282;2023-11-21T10:56:25;6.80;;;3.45;;
78346;SDS011;67803;41.330;69.282;2023-11-21T10:58:56;9.40;;;3.25;;
78346;SDS011;67803;41.330;69.282;2023-11-21T11:01:27;10.48;;;3.63;;
78346;SDS011;67803;41.330;69.282;2023-11-21T11:03:59;24.83;;;8.40;;
78346;SDS011;67803;41.330;69.282;2023-11-21T11:06:30;21.65;;;8.23;;
78346;SDS011;67803;41.330;69.282;2023-11-21T11:09:02;26.55;;;11.07;;
78346;SDS011;67803;41.330;69.282;2023-11-21T11:11:33;22.08;;;10.35;;
78346;SDS011;67803;41.330;69.282;2023-11-21T11:14:04;18.92;;;9.10;;
78346;SDS011;67803;41.330;69.282;2023-11-21T11:16:35;24.45;;;8.70;;
78346;SDS011;67803;41.330;69.282;2023-11-21T11:19:09;18.88;;;8.48;;
78346;SDS011;67803;41.330;69.282;2023-11-21T11:26:58;20.67;;;6.32;;
78346;SDS011;67803;41.330;69.282;2023-11-21T11:29:43;22.35;;;7.07;;
78346;SDS011;67803;41.330;69.282;2023-11-21T11:37:54;18.08;;;5.50;;
78346;SDS011;67803;41.330;69.282;2023-11-21T11:40:46;17.73;;;5.10;;
78346;SDS011;67803;41.330;69.282;2023-11-21T11:45:48;22.70;;;6.60;;
78346;SDS011;67803;41.330;69.282;2023-11-21T11:48:22;26.58;;;6.70;;
78346;SDS011;67803;41.330;69.282;2023-11-21T11:51:10;17.33;;;5.07;;
78346;SDS011;67803;41.330;69.282;2023-11-21T11:53:41;25.83;;;6.75;;
78346;SDS011;67803;41.330;69.282;2023-11-21T11:56:28;27.38;;;6.80;;
78346;SDS011;67803;41.330;69.282;2023-11-21T11:59:03;29.40;;;7.13;;
78346;SDS011;67803;41.330;69.282;2023-11-21T12:01:34;20.15;;;6.57;;
78346;SDS011;67803;41.330;69.282;2023-11-21T12:04:23;14.80;;;5.57;;
78346;SDS011;67803;41.330;69.282;2023-11-21T12:06:54;21.95;;;7.03;;
78346;SDS011;67803;41.330;69.282;2023-11-21T12:09:26;21.90;;;7.15;;
78346;SDS011;67803;41.330;69.282;2023-11-21T12:11:57;25.63;;;7.10;;
78346;SDS011;67803;41.330;69.282;2023-11-21T12:14:27;22.02;;;6.82;;
78346;SDS011;67803;41.330;69.282;2023-11-21T12:16:59;21.23;;;8.27;;
78346;SDS011;67803;41.330;69.282;2023-11-21T12:19:30;23.20;;;8.05;;
78346;SDS011;67803;41.330;69.282;2023-11-21T12:22:01;29.17;;;8.43;;
78346;SDS011;67803;41.330;69.282;2023-11-21T12:24:31;28.48;;;9.05;;
78346;SDS011;67803;41.330;69.282;2023-11-21T12:27:02;19.67;;;7.18;;
78346;SDS011;67803;41.330;69.282;2023-11-21T12:29:33;24.13;;;8.93;;
78346;SDS011;67803;41.330;69.282;2023-11-21T12:32:03;28.35;;;9.30;;
78346;SDS011;67803;41.330;69.282;2023-11-21T12:34:34;30.52;;;11.18;;
78346;SDS011;67803;41.330;69.282;2023-11-21T12:37:05;28.02;;;12.77;;
78346;SDS011;67803;41.330;69.282;2023-11-21T12:39:36;30.23;;;11.45;;
78346;SDS011;67803;41.330;69.282;2023-11-21T12:42:06;30.33;;;11.75;;
78346;SDS011;67803;41.330;69.282;2023-11-21T12:44:37;22.80;;;12.32;;
78346;SDS011;67803;41.330;69.282;2023-11-21T12:47:11;25.80;;;11.77;;
78346;SDS011;67803;41.330;69.282;2023-11-21T12:49:45;29.60;;;12.40;;
78346;SDS011;67803;41.330;69.282;2023-11-21T12:52:15;28.80;;;15.40;;
78346;SDS011;67803;41.330;69.282;2023-11-21T12:54:46;31.23;;;15.52;;
78346;SDS011;67803;41.330;69.282;2023-11-21T12:57:19;26.20;;;14.32;;
78346;SDS011;67803;41.330;69.282;2023-11-21T12:59:49;39.17;;;14.30;;
78346;SDS011;67803;41.330;69.282;2023-11-21T13:02:25;33.17;;;15.50;;
78346;SDS011;67803;41.330;69.282;2023-11-21T13:04:56;32.85;;;16.02;;
78346;SDS011;67803;41.330;69.282;2023-11-21T13:07:28;38.83;;;16.13;;
78346;SDS011;67803;41.330;69.282;2023-11-21T13:09:59;30.85;;;15.15;;
78346;SDS011;67803;41.330;69.282;2023-11-21T13:12:29;31.33;;;15.15;;
78346;SDS011;67803;41.330;69.282;2023-11-21T13:15:05;34.38;;;15.77;;
78346;SDS011;67803;41.330;69.282;2023-11-21T13:17:37;35.72;;;15.45;;
78346;SDS011;67803;41.330;69.282;2023-11-21T13:20:08;37.90;;;17.40;;
78346;SDS011;67803;41.330;69.282;2023-11-21T13:22:55;36.10;;;18.70;;
78346;SDS011;67803;41.330;69.282;2023-11-21T13:25:31;35.97;;;17.25;;
78346;SDS011;67803;41.330;69.282;2023-11-21T13:28:01;34.45;;;16.38;;
78346;SDS011;67803;41.330;69.282;2023-11-21T13:30:32;33.67;;;15.43;;
78346;SDS011;67803;41.330;69.282;2023-11-21T13:33:06;36.95;;;15.95;;
78346;SDS011;67803;41.330;69.282;2023-11-21T13:35:38;40.47;;;16.73;;
78346;SDS011;67803;41.330;69.282;2023-11-21T13:38:18;35.95;;;16.25;;
78346;SDS011;67803;41.330;69.282;2023-11-21T13:40:53;34.95;;;16.95;;
78346;SDS011;67803;41.330;69.282;2023-11-21T13:43:24;30.35;;;17.00;;
78346;SDS011;67803;41.330;69.282;2023-11-21T13:45:56;42.28;;;19.60;;
78346;SDS011;67803;41.330;69.282;2023-11-21T13:48:45;37.67;;;17.30;;
78346;SDS011;67803;41.330;69.282;2023-11-21T13:51:22;36.88;;;18.83;;
78346;SDS011;67803;41.330;69.282;2023-11-21T13:54:00;42.97;;;20.48;;
78346;SDS011;67803;41.330;69.282;2023-11-21T13:56:33;42.67;;;18.88;;
78346;SDS011;67803;41.330;69.282;2023-11-21T13:59:03;40.95;;;20.48;;
78346;SDS011;67803;41.330;69.282;2023-11-21T14:01:45;43.63;;;19.20;;
78346;SDS011;67803;41.330;69.282;2023-11-21T14:04:38;42.28;;;19.42;;
78346;SDS011;67803;41.330;69.282;2023-11-21T14:07:30;43.10;;;19.23;;
78346;SDS011;67803;41.330;69.282;2023-11-21T14:10:07;43.30;;;19.13;;
78346;SDS011;67803;41.330;69.282;2023-11-21T14:12:43;37.05;;;18.70;;
78346;SDS011;67803;41.330;69.282;2023-11-21T14:15:14;44.05;;;19.05;;
78346;SDS011;67803;41.330;69.282;2023-11-21T14:17:49;38.03;;;19.17;;
78346;SDS011;67803;41.330;69.282;2023-11-21T14:20:20;38.08;;;19.25;;
78346;SDS011;67803;41.330;69.282;2023-11-21T14:22:51;39.35;;;16.80;;
78346;SDS011;67803;41.330;69.282;2023-11-21T14:25:22;34.30;;;17.58;;
78346;SDS011;67803;41.330;69.282;2023-11-21T14:27:52;44.20;;;19.80;;
78346;SDS011;67803;41.330;69.282;2023-11-21T14:30:23;42.53;;;18.58;;
78346;SDS011;67803;41.330;69.282;2023-11-21T14:32:55;38.00;;;17.38;;
78346;SDS011;67803;41.330;69.282;2023-11-21T14:35:27;42.65;;;18.42;;
78346;SDS011;67803;41.330;69.282;2023-11-21T14:38:01;37.58;;;16.80;;
78346;SDS011;67803;41.330;69.282;2023-11-21T14:40:34;36.83;;;16.50;;
78346;SDS011;67803;41.330;69.282;2023-11-21T14:43:06;33.28;;;16.77;;
78346;SDS011;67803;41.330;69.282;2023-11-21T14:45:37;40.55;;;17.75;;
78346;SDS011;67803;41.330;69.282;2023-11-21T14:48:08;35.08;;;17.52;;
78346;SDS011;67803;41.330;69.282;2023-11-21T14:50:46;38.83;;;17.00;;
78346;SDS011;67803;41.330;69.282;2023-11-21T14:53:39;37.10;;;16.48;;
78346;SDS011;67803;41.330;69.282;2023-11-21T14:56:16;39.55;;;17.88;;
78346;SDS011;67803;41.330;69.282;2023-11-21T14:58:56;44.13;;;17.88;;
78346;SDS011;67803;41.330;69.282;2023-11-21T15:01:26;45.45;;;18.98;;
78346;SDS011;67803;41.330;69.282;2023-11-21T15:04:14;45.60;;;18.02;;
78346;SDS011;67803;41.330;69.282;2023-11-21T15:06:53;62.17;;;20.15;;
78346;SDS011;67803;41.330;69.282;2023-11-21T15:09:27;49.60;;;20.25;;
78346;SDS011;67803;41.330;69.282;2023-11-21T15:12:04;55.80;;;23.58;;